sensor_id;sensor_type;location;lat;lon;timestamp;temperature;humidity
26053;DHT22;13826;51.186;4.450;2022-07-29T00:01:22;19.80;1.00
26053;DHT22;13826;51.186;4.450;2022-07-29T00:03:48;19.80;1.00
26053;DHT22;13826;51.186;4.450;2022-07-29T00:06:14;19.90;1.00
26053;DHT22;13826;51.186;4.450;2022-07-29T00:08:40;19.90;1.00
26053;DHT22;13826;51.186;4.450;2022-07-29T00:11:05;19.90;1.00
26053;DHT22;13826;51.186;4.450;2022-07-29T00:13:31;19.80;1.00
26053;DHT22;13826;51.186;4.450;2022-07-29T00:15:57;19.90;1.00
26053;DHT22;13826;51.186;4.450;2022-07-29T00:18:23;19.90;1.00
26053;DHT22;13826;51.186;4.450;2022-07-29T00:20:48;19.80;1.00
26053;DHT22;13826;51.186;4.450;2022-07-29T00:23:14;19.80;1.00
26053;DHT22;13826;51.186;4.450;2022-07-29T00:25:40;19.80;1.00
26053;DHT22;13826;51.186;4.450;2022-07-29T00:28:05;19.70;1.00
26053;DHT22;13826;51.186;4.450;2022-07-29T00:30:31;19.60;1.00
26053;DHT22;13826;51.186;4.450;2022-07-29T00:32:57;19.60;1.00
26053;DHT22;13826;51.186;4.450;2022-07-29T00:35:22;19.60;1.00
26053;DHT22;13826;51.186;4.450;2022-07-29T00:38:06;19.50;1.00
26053;DHT22;13826;51.186;4.450;2022-07-29T00:40:32;19.50;1.00
26053;DHT22;13826;51.186;4.450;2022-07-29T00:42:58;19.50;1.00
26053;DHT22;13826;51.186;4.450;2022-07-29T00:45:23;19.40;1.00
26053;DHT22;13826;51.186;4.450;2022-07-29T00:47:49;19.60;1.00
26053;DHT22;13826;51.186;4.450;2022-07-29T00:50:16;19.60;1.00
26053;DHT22;13826;51.186;4.450;2022-07-29T00:52:42;19.60;1.00
26053;DHT22;13826;51.186;4.450;2022-07-29T00:55:12;19.60;1.00
26053;DHT22;13826;51.186;4.450;2022-07-29T00:57:39;19.60;1.00
26053;DHT22;13826;51.186;4.450;2022-07-29T01:00:07;19.60;1.00
26053;DHT22;13826;51.186;4.450;2022-07-29T01:02:33;19.60;1.00
26053;DHT22;13826;51.186;4.450;2022-07-29T01:05:00;19.70;1.00
26053;DHT22;13826;51.186;4.450;2022-07-29T01:07:27;19.80;1.00
26053;DHT22;13826;51.186;4.450;2022-07-29T01:09:54;19.70;1.00
26053;DHT22;13826;51.186;4.450;2022-07-29T01:12:25;19.70;1.00
26053;DHT22;13826;51.186;4.450;2022-07-29T01:14:52;19.70;1.00
26053;DHT22;13826;51.186;4.450;2022-07-29T01:30:37;19.40;1.00
26053;DHT22;13826;51.186;4.450;2022-07-29T01:33:09;19.30;1.00
26053;DHT22;13826;51.186;4.450;2022-07-29T01:35:39;19.30;1.00
26053;DHT22;13826;51.186;4.450;2022-07-29T01:38:08;19.10;1.00
26053;DHT22;13826;51.186;4.450;2022-07-29T01:40:45;19.20;1.00
26053;DHT22;13826;51.186;4.450;2022-07-29T01:43:27;19.10;1.00
26053;DHT22;13826;51.186;4.450;2022-07-29T01:45:57;19.20;1.00
26053;DHT22;13826;51.186;4.450;2022-07-29T01:48:39;19.30;1.00
26053;DHT22;13826;51.186;4.450;2022-07-29T01:51:08;19.30;1.00
26053;DHT22;13826;51.186;4.450;2022-07-29T01:53:46;19.40;1.00
26053;DHT22;13826;51.186;4.450;2022-07-29T01:56:13;19.30;1.00
26053;DHT22;13826;51.186;4.450;2022-07-29T01:58:41;19.20;1.00
26053;DHT22;13826;51.186;4.450;2022-07-29T02:01:09;19.10;1.00
26053;DHT22;13826;51.186;4.450;2022-07-29T02:03:37;19.10;1.00
26053;DHT22;13826;51.186;4.450;2022-07-29T02:06:06;19.10;1.00
26053;DHT22;13826;51.186;4.450;2022-07-29T02:08:33;19.20;1.00
26053;DHT22;13826;51.186;4.450;2022-07-29T02:11:00;19.10;1.00
26053;DHT22;13826;51.186;4.450;2022-07-29T02:13:28;19.00;1.00
26053;DHT22;13826;51.186;4.450;2022-07-29T02:15:57;18.90;1.00
26053;DHT22;13826;51.186;4.450;2022-07-29T02:18:25;18.80;1.00
26053;DHT22;13826;51.186;4.450;2022-07-29T02:20:54;18.80;1.00
26053;DHT22;13826;51.186;4.450;2022-07-29T02:23:22;18.90;1.00
26053;DHT22;13826;51.186;4.450;2022-07-29T02:25:51;18.90;1.00
26053;DHT22;13826;51.186;4.450;2022-07-29T02:28:19;19.00;1.00
26053;DHT22;13826;51.186;4.450;2022-07-29T02:30:45;18.90;1.00
26053;DHT22;13826;51.186;4.450;2022-07-29T02:33:14;18.60;14.10
26053;DHT22;13826;51.186;4.450;2022-07-29T02:35:41;18.60;64.90
26053;DHT22;13826;51.186;4.450;2022-07-29T02:38:12;18.60;93.30
26053;DHT22;13826;51.186;4.450;2022-07-29T02:40:58;18.60;91.10
26053;DHT22;13826;51.186;4.450;2022-07-29T02:43:24;18.60;99.90
26053;DHT22;13826;51.186;4.450;2022-07-29T02:45:53;18.50;99.90
26053;DHT22;13826;51.186;4.450;2022-07-29T02:48:22;18.50;99.90
26053;DHT22;13826;51.186;4.450;2022-07-29T02:50:57;18.40;99.90
26053;DHT22;13826;51.186;4.450;2022-07-29T02:53:27;18.40;99.90
26053;DHT22;13826;51.186;4.450;2022-07-29T02:56:04;18.50;99.90
26053;DHT22;13826;51.186;4.450;2022-07-29T02:58:49;18.50;99.90
26053;DHT22;13826;51.186;4.450;2022-07-29T03:01:22;18.50;99.90
26053;DHT22;13826;51.186;4.450;2022-07-29T03:03:50;18.50;99.90
26053;DHT22;13826;51.186;4.450;2022-07-29T03:06:18;18.40;99.90
26053;DHT22;13826;51.186;4.450;2022-07-29T03:08:44;18.30;99.90
26053;DHT22;13826;51.186;4.450;2022-07-29T03:11:11;18.10;99.90
26053;DHT22;13826;51.186;4.450;2022-07-29T03:13:37;18.10;99.90
26053;DHT22;13826;51.186;4.450;2022-07-29T03:16:04;18.10;99.90
26053;DHT22;13826;51.186;4.450;2022-07-29T03:18:31;18.10;99.90
26053;DHT22;13826;51.186;4.450;2022-07-29T03:20:58;18.10;99.90
26053;DHT22;13826;51.186;4.450;2022-07-29T03:23:24;18.10;99.90
26053;DHT22;13826;51.186;4.450;2022-07-29T03:25:51;18.00;1.00
26053;DHT22;13826;51.186;4.450;2022-07-29T03:28:17;18.00;1.00
26053;DHT22;13826;51.186;4.450;2022-07-29T03:30:43;17.90;1.00
26053;DHT22;13826;51.186;4.450;2022-07-29T03:33:09;18.00;1.00
26053;DHT22;13826;51.186;4.450;2022-07-29T03:35:34;17.90;1.00
26053;DHT22;13826;51.186;4.450;2022-07-29T03:38:00;17.90;1.00
26053;DHT22;13826;51.186;4.450;2022-07-29T03:40:32;17.90;1.00
26053;DHT22;13826;51.186;4.450;2022-07-29T03:43:00;17.90;1.00
26053;DHT22;13826;51.186;4.450;2022-07-29T03:45:28;17.90;1.00
26053;DHT22;13826;51.186;4.450;2022-07-29T03:48:01;17.80;1.00
26053;DHT22;13826;51.186;4.450;2022-07-29T03:50:28;17.70;99.90
26053;DHT22;13826;51.186;4.450;2022-07-29T03:52:55;17.70;99.90
26053;DHT22;13826;51.186;4.450;2022-07-29T03:55:21;17.70;99.90
26053;DHT22;13826;51.186;4.450;2022-07-29T03:57:48;17.70;99.90
26053;DHT22;13826;51.186;4.450;2022-07-29T04:00:15;17.70;99.90
26053;DHT22;13826;51.186;4.450;2022-07-29T04:02:41;17.60;99.90
26053;DHT22;13826;51.186;4.450;2022-07-29T04:05:14;17.70;99.90
26053;DHT22;13826;51.186;4.450;2022-07-29T04:07:43;17.60;99.90
26053;DHT22;13826;51.186;4.450;2022-07-29T04:10:08;17.60;1.00
26053;DHT22;13826;51.186;4.450;2022-07-29T04:12:34;17.50;1.00
26053;DHT22;13826;51.186;4.450;2022-07-29T04:15:01;17.50;1.00
26053;DHT22;13826;51.186;4.450;2022-07-29T04:17:26;17.50;1.00
26053;DHT22;13826;51.186;4.450;2022-07-29T04:19:52;17.50;1.00
26053;DHT22;13826;51.186;4.450;2022-07-29T04:22:18;17.50;4.50
26053;DHT22;13826;51.186;4.450;2022-07-29T04:24:43;17.40;99.90
26053;DHT22;13826;51.186;4.450;2022-07-29T04:27:09;17.40;99.90
26053;DHT22;13826;51.186;4.450;2022-07-29T04:29:35;17.40;1.00
26053;DHT22;13826;51.186;4.450;2022-07-29T04:32:00;17.40;99.90
26053;DHT22;13826;51.186;4.450;2022-07-29T04:34:26;17.40;1.00
26053;DHT22;13826;51.186;4.450;2022-07-29T04:36:52;17.50;99.90
26053;DHT22;13826;51.186;4.450;2022-07-29T04:39:17;17.60;99.90
26053;DHT22;13826;51.186;4.450;2022-07-29T04:41:44;17.70;59.50
26053;DHT22;13826;51.186;4.450;2022-07-29T04:44:10;17.70;1.00
26053;DHT22;13826;51.186;4.450;2022-07-29T04:46:35;17.80;16.10
26053;DHT22;13826;51.186;4.450;2022-07-29T04:49:02;17.90;1.00
26053;DHT22;13826;51.186;4.450;2022-07-29T04:51:28;17.90;1.00
26053;DHT22;13826;51.186;4.450;2022-07-29T04:53:53;18.00;99.90
26053;DHT22;13826;51.186;4.450;2022-07-29T04:56:19;18.00;99.90
26053;DHT22;13826;51.186;4.450;2022-07-29T04:58:45;18.10;99.90
26053;DHT22;13826;51.186;4.450;2022-07-29T05:01:11;18.30;99.90
26053;DHT22;13826;51.186;4.450;2022-07-29T05:03:36;18.50;5.10
26053;DHT22;13826;51.186;4.450;2022-07-29T05:06:02;18.50;1.00
26053;DHT22;13826;51.186;4.450;2022-07-29T05:08:28;18.50;1.00
26053;DHT22;13826;51.186;4.450;2022-07-29T05:10:53;18.50;1.00
26053;DHT22;13826;51.186;4.450;2022-07-29T05:13:19;18.50;1.00
26053;DHT22;13826;51.186;4.450;2022-07-29T05:15:45;18.40;1.00
26053;DHT22;13826;51.186;4.450;2022-07-29T05:18:10;18.20;90.60
26053;DHT22;13826;51.186;4.450;2022-07-29T05:20:36;18.20;99.90
26053;DHT22;13826;51.186;4.450;2022-07-29T05:23:02;18.20;99.90
26053;DHT22;13826;51.186;4.450;2022-07-29T05:25:29;18.50;99.90
26053;DHT22;13826;51.186;4.450;2022-07-29T05:27:55;18.80;1.00
26053;DHT22;13826;51.186;4.450;2022-07-29T05:30:21;19.80;99.90
26053;DHT22;13826;51.186;4.450;2022-07-29T05:32:47;20.50;99.90
26053;DHT22;13826;51.186;4.450;2022-07-29T05:35:13;20.90;91.40
26053;DHT22;13826;51.186;4.450;2022-07-29T05:37:39;21.70;5.00
26053;DHT22;13826;51.186;4.450;2022-07-29T05:40:06;22.60;1.00
26053;DHT22;13826;51.186;4.450;2022-07-29T05:42:32;22.90;1.00
26053;DHT22;13826;51.186;4.450;2022-07-29T05:44:57;23.90;1.00
26053;DHT22;13826;51.186;4.450;2022-07-29T05:47:24;24.60;1.00
26053;DHT22;13826;51.186;4.450;2022-07-29T05:49:50;24.40;1.00
26053;DHT22;13826;51.186;4.450;2022-07-29T05:52:16;24.70;1.00
26053;DHT22;13826;51.186;4.450;2022-07-29T05:54:41;25.90;1.00
26053;DHT22;13826;51.186;4.450;2022-07-29T05:57:07;25.10;1.00
26053;DHT22;13826;51.186;4.450;2022-07-29T05:59:37;24.90;1.00
26053;DHT22;13826;51.186;4.450;2022-07-29T06:02:03;24.60;1.00
26053;DHT22;13826;51.186;4.450;2022-07-29T06:04:31;23.70;1.00
26053;DHT22;13826;51.186;4.450;2022-07-29T06:06:56;23.30;1.00
26053;DHT22;13826;51.186;4.450;2022-07-29T06:09:22;22.80;1.00
26053;DHT22;13826;51.186;4.450;2022-07-29T06:11:48;22.50;1.00
26053;DHT22;13826;51.186;4.450;2022-07-29T06:14:14;22.90;1.00
26053;DHT22;13826;51.186;4.450;2022-07-29T06:16:40;22.80;1.00
26053;DHT22;13826;51.186;4.450;2022-07-29T06:19:05;22.60;1.00
26053;DHT22;13826;51.186;4.450;2022-07-29T06:21:31;22.10;1.00
26053;DHT22;13826;51.186;4.450;2022-07-29T06:23:57;22.00;1.00
26053;DHT22;13826;51.186;4.450;2022-07-29T06:26:23;22.30;1.00
26053;DHT22;13826;51.186;4.450;2022-07-29T06:28:48;22.50;1.00
26053;DHT22;13826;51.186;4.450;2022-07-29T06:31:14;21.80;1.00
26053;DHT22;13826;51.186;4.450;2022-07-29T06:33:40;21.60;1.00
26053;DHT22;13826;51.186;4.450;2022-07-29T06:36:06;21.50;1.00
26053;DHT22;13826;51.186;4.450;2022-07-29T06:38:32;21.40;1.00
26053;DHT22;13826;51.186;4.450;2022-07-29T06:40:59;22.30;1.00
26053;DHT22;13826;51.186;4.450;2022-07-29T06:43:27;24.10;1.00
26053;DHT22;13826;51.186;4.450;2022-07-29T06:45:52;25.30;1.00
26053;DHT22;13826;51.186;4.450;2022-07-29T06:48:18;27.20;1.00
26053;DHT22;13826;51.186;4.450;2022-07-29T06:50:44;28.70;1.00
26053;DHT22;13826;51.186;4.450;2022-07-29T06:53:10;29.30;1.00
26053;DHT22;13826;51.186;4.450;2022-07-29T06:55:35;29.70;1.00
26053;DHT22;13826;51.186;4.450;2022-07-29T06:58:02;30.70;1.00
26053;DHT22;13826;51.186;4.450;2022-07-29T07:00:28;31.40;1.00
26053;DHT22;13826;51.186;4.450;2022-07-29T07:02:53;32.20;1.00
26053;DHT22;13826;51.186;4.450;2022-07-29T07:05:19;32.50;1.00
26053;DHT22;13826;51.186;4.450;2022-07-29T07:07:45;33.00;1.00
26053;DHT22;13826;51.186;4.450;2022-07-29T07:10:10;32.90;1.00
26053;DHT22;13826;51.186;4.450;2022-07-29T07:12:36;32.50;1.00
26053;DHT22;13826;51.186;4.450;2022-07-29T07:15:02;33.40;1.00
26053;DHT22;13826;51.186;4.450;2022-07-29T07:17:28;34.20;1.00
26053;DHT22;13826;51.186;4.450;2022-07-29T07:19:54;34.00;1.00
26053;DHT22;13826;51.186;4.450;2022-07-29T07:22:19;34.10;1.00
26053;DHT22;13826;51.186;4.450;2022-07-29T07:24:45;34.70;1.00
26053;DHT22;13826;51.186;4.450;2022-07-29T07:27:11;34.80;1.00
26053;DHT22;13826;51.186;4.450;2022-07-29T07:29:36;34.70;1.00
26053;DHT22;13826;51.186;4.450;2022-07-29T07:32:06;34.70;1.00
26053;DHT22;13826;51.186;4.450;2022-07-29T07:34:32;35.30;1.00
26053;DHT22;13826;51.186;4.450;2022-07-29T07:36:59;35.10;1.00
26053;DHT22;13826;51.186;4.450;2022-07-29T07:39:24;36.10;1.00
26053;DHT22;13826;51.186;4.450;2022-07-29T07:41:51;37.00;1.00
26053;DHT22;13826;51.186;4.450;2022-07-29T07:44:17;36.10;1.00
26053;DHT22;13826;51.186;4.450;2022-07-29T07:46:43;35.50;1.00
26053;DHT22;13826;51.186;4.450;2022-07-29T07:49:10;36.20;1.00
26053;DHT22;13826;51.186;4.450;2022-07-29T07:51:36;37.20;1.00
26053;DHT22;13826;51.186;4.450;2022-07-29T07:54:02;37.60;1.00
26053;DHT22;13826;51.186;4.450;2022-07-29T07:56:28;38.10;1.00
26053;DHT22;13826;51.186;4.450;2022-07-29T07:58:53;37.70;1.00
26053;DHT22;13826;51.186;4.450;2022-07-29T08:01:19;38.00;1.00
26053;DHT22;13826;51.186;4.450;2022-07-29T08:03:48;38.10;1.00
26053;DHT22;13826;51.186;4.450;2022-07-29T08:06:14;38.40;1.00
26053;DHT22;13826;51.186;4.450;2022-07-29T08:08:40;38.50;1.00
26053;DHT22;13826;51.186;4.450;2022-07-29T08:11:06;38.20;1.00
26053;DHT22;13826;51.186;4.450;2022-07-29T08:13:32;39.00;1.00
26053;DHT22;13826;51.186;4.450;2022-07-29T08:15:59;39.90;1.00
26053;DHT22;13826;51.186;4.450;2022-07-29T08:18:36;40.20;1.00
26053;DHT22;13826;51.186;4.450;2022-07-29T08:21:02;40.20;1.00
26053;DHT22;13826;51.186;4.450;2022-07-29T08:23:28;39.60;1.00
26053;DHT22;13826;51.186;4.450;2022-07-29T08:26:00;39.60;1.00
26053;DHT22;13826;51.186;4.450;2022-07-29T08:28:26;40.10;1.00
26053;DHT22;13826;51.186;4.450;2022-07-29T08:30:52;40.60;1.00
26053;DHT22;13826;51.186;4.450;2022-07-29T08:33:18;40.90;1.00
26053;DHT22;13826;51.186;4.450;2022-07-29T08:35:43;39.90;1.00
26053;DHT22;13826;51.186;4.450;2022-07-29T08:38:09;39.90;1.00
26053;DHT22;13826;51.186;4.450;2022-07-29T08:40:35;40.50;1.00
26053;DHT22;13826;51.186;4.450;2022-07-29T08:43:08;41.00;1.00
26053;DHT22;13826;51.186;4.450;2022-07-29T08:45:48;41.30;1.00
26053;DHT22;13826;51.186;4.450;2022-07-29T08:48:20;40.70;1.00
26053;DHT22;13826;51.186;4.450;2022-07-29T08:50:47;41.00;1.00
26053;DHT22;13826;51.186;4.450;2022-07-29T08:53:17;39.80;1.00
26053;DHT22;13826;51.186;4.450;2022-07-29T08:55:45;38.50;1.00
26053;DHT22;13826;51.186;4.450;2022-07-29T08:58:11;38.90;1.00
26053;DHT22;13826;51.186;4.450;2022-07-29T09:00:39;39.40;1.00
26053;DHT22;13826;51.186;4.450;2022-07-29T09:03:08;40.60;1.00
26053;DHT22;13826;51.186;4.450;2022-07-29T09:05:34;41.60;1.00
26053;DHT22;13826;51.186;4.450;2022-07-29T09:08:01;40.90;1.00
26053;DHT22;13826;51.186;4.450;2022-07-29T09:10:27;41.30;1.00
26053;DHT22;13826;51.186;4.450;2022-07-29T09:12:56;41.60;1.00
26053;DHT22;13826;51.186;4.450;2022-07-29T09:15:22;40.90;1.00
26053;DHT22;13826;51.186;4.450;2022-07-29T09:17:49;40.70;1.00
26053;DHT22;13826;51.186;4.450;2022-07-29T09:20:17;41.00;1.00
26053;DHT22;13826;51.186;4.450;2022-07-29T09:22:44;40.90;1.00
26053;DHT22;13826;51.186;4.450;2022-07-29T09:28:06;39.90;1.00
26053;DHT22;13826;51.186;4.450;2022-07-29T09:30:33;40.50;1.00
26053;DHT22;13826;51.186;4.450;2022-07-29T09:33:00;41.00;1.00
26053;DHT22;13826;51.186;4.450;2022-07-29T09:35:27;40.90;1.00
26053;DHT22;13826;51.186;4.450;2022-07-29T09:37:53;41.60;1.00
26053;DHT22;13826;51.186;4.450;2022-07-29T09:40:25;40.80;1.00
26053;DHT22;13826;51.186;4.450;2022-07-29T09:42:52;41.50;1.00
26053;DHT22;13826;51.186;4.450;2022-07-29T09:45:29;41.20;1.00
26053;DHT22;13826;51.186;4.450;2022-07-29T09:47:55;40.80;1.00
26053;DHT22;13826;51.186;4.450;2022-07-29T09:50:43;40.50;1.00
26053;DHT22;13826;51.186;4.450;2022-07-29T09:53:09;40.50;1.00
26053;DHT22;13826;51.186;4.450;2022-07-29T09:55:51;40.70;1.00
26053;DHT22;13826;51.186;4.450;2022-07-29T09:58:21;40.60;1.00
26053;DHT22;13826;51.186;4.450;2022-07-29T10:00:49;40.10;1.00
26053;DHT22;13826;51.186;4.450;2022-07-29T10:03:16;40.10;1.00
26053;DHT22;13826;51.186;4.450;2022-07-29T10:05:43;39.20;1.00
26053;DHT22;13826;51.186;4.450;2022-07-29T10:08:10;39.90;1.00
26053;DHT22;13826;51.186;4.450;2022-07-29T10:10:41;40.10;1.00
26053;DHT22;13826;51.186;4.450;2022-07-29T10:13:13;38.40;1.00
26053;DHT22;13826;51.186;4.450;2022-07-29T10:15:43;39.60;1.00
26053;DHT22;13826;51.186;4.450;2022-07-29T10:18:11;40.40;1.00
26053;DHT22;13826;51.186;4.450;2022-07-29T10:20:38;40.10;1.00
26053;DHT22;13826;51.186;4.450;2022-07-29T10:23:05;40.70;1.00
26053;DHT22;13826;51.186;4.450;2022-07-29T10:25:31;41.00;1.00
26053;DHT22;13826;51.186;4.450;2022-07-29T10:27:57;41.00;1.00
26053;DHT22;13826;51.186;4.450;2022-07-29T10:30:24;41.00;1.00
26053;DHT22;13826;51.186;4.450;2022-07-29T10:43:34;39.50;1.00
26053;DHT22;13826;51.186;4.450;2022-07-29T10:46:02;40.20;1.00
26053;DHT22;13826;51.186;4.450;2022-07-29T10:48:28;40.40;1.00
26053;DHT22;13826;51.186;4.450;2022-07-29T10:51:04;40.20;1.00
26053;DHT22;13826;51.186;4.450;2022-07-29T10:53:59;40.70;1.00
26053;DHT22;13826;51.186;4.450;2022-07-29T10:56:31;39.80;1.00
26053;DHT22;13826;51.186;4.450;2022-07-29T11:01:44;40.00;1.00
26053;DHT22;13826;51.186;4.450;2022-07-29T11:04:10;39.90;1.00
26053;DHT22;13826;51.186;4.450;2022-07-29T11:09:26;38.40;1.00
26053;DHT22;13826;51.186;4.450;2022-07-29T11:11:52;39.20;1.00
26053;DHT22;13826;51.186;4.450;2022-07-29T11:14:20;38.60;1.00
26053;DHT22;13826;51.186;4.450;2022-07-29T11:17:05;36.30;1.00
26053;DHT22;13826;51.186;4.450;2022-07-29T11:19:32;36.50;1.00
26053;DHT22;13826;51.186;4.450;2022-07-29T11:21:58;37.40;1.00
26053;DHT22;13826;51.186;4.450;2022-07-29T11:24:33;37.30;1.00
26053;DHT22;13826;51.186;4.450;2022-07-29T11:27:14;37.60;1.00
26053;DHT22;13826;51.186;4.450;2022-07-29T11:29:57;38.00;1.00
26053;DHT22;13826;51.186;4.450;2022-07-29T11:32:38;37.30;1.00
26053;DHT22;13826;51.186;4.450;2022-07-29T11:35:22;38.60;1.00
26053;DHT22;13826;51.186;4.450;2022-07-29T11:43:58;38.20;1.00
26053;DHT22;13826;51.186;4.450;2022-07-29T11:46:46;36.10;1.00
26053;DHT22;13826;51.186;4.450;2022-07-29T11:49:20;35.60;1.00
26053;DHT22;13826;51.186;4.450;2022-07-29T11:51:57;35.90;1.00
26053;DHT22;13826;51.186;4.450;2022-07-29T11:54:30;35.60;1.00
26053;DHT22;13826;51.186;4.450;2022-07-29T11:56:57;35.70;1.00
26053;DHT22;13826;51.186;4.450;2022-07-29T11:59:24;36.40;1.00
26053;DHT22;13826;51.186;4.450;2022-07-29T12:01:54;37.20;1.00
26053;DHT22;13826;51.186;4.450;2022-07-29T12:04:20;37.00;1.00
26053;DHT22;13826;51.186;4.450;2022-07-29T12:06:52;36.20;1.00
26053;DHT22;13826;51.186;4.450;2022-07-29T12:09:18;35.40;1.00
26053;DHT22;13826;51.186;4.450;2022-07-29T12:11:45;35.00;1.00
26053;DHT22;13826;51.186;4.450;2022-07-29T12:14:31;34.00;1.00
26053;DHT22;13826;51.186;4.450;2022-07-29T12:16:58;33.60;1.00
26053;DHT22;13826;51.186;4.450;2022-07-29T12:19:24;32.70;1.00
26053;DHT22;13826;51.186;4.450;2022-07-29T12:21:53;32.20;1.00
26053;DHT22;13826;51.186;4.450;2022-07-29T12:24:20;31.40;1.00
26053;DHT22;13826;51.186;4.450;2022-07-29T12:26:51;30.90;1.00
26053;DHT22;13826;51.186;4.450;2022-07-29T12:29:17;31.00;1.00
26053;DHT22;13826;51.186;4.450;2022-07-29T12:31:44;31.40;1.00
26053;DHT22;13826;51.186;4.450;2022-07-29T12:34:15;31.50;1.00
26053;DHT22;13826;51.186;4.450;2022-07-29T12:36:42;31.90;1.00
26053;DHT22;13826;51.186;4.450;2022-07-29T12:39:08;32.00;1.00
26053;DHT22;13826;51.186;4.450;2022-07-29T12:41:34;32.10;1.00
26053;DHT22;13826;51.186;4.450;2022-07-29T12:44:00;32.30;1.00
26053;DHT22;13826;51.186;4.450;2022-07-29T12:46:26;32.30;1.00
26053;DHT22;13826;51.186;4.450;2022-07-29T12:48:53;32.70;1.00
26053;DHT22;13826;51.186;4.450;2022-07-29T12:54:10;31.70;1.00
26053;DHT22;13826;51.186;4.450;2022-07-29T12:56:45;31.20;1.00
26053;DHT22;13826;51.186;4.450;2022-07-29T12:59:16;31.60;1.00
26053;DHT22;13826;51.186;4.450;2022-07-29T13:01:42;32.00;1.00
26053;DHT22;13826;51.186;4.450;2022-07-29T13:04:08;31.80;1.00
26053;DHT22;13826;51.186;4.450;2022-07-29T13:06:44;31.50;1.00
26053;DHT22;13826;51.186;4.450;2022-07-29T13:11:42;31.80;1.00
26053;DHT22;13826;51.186;4.450;2022-07-29T13:14:12;31.90;1.00
26053;DHT22;13826;51.186;4.450;2022-07-29T13:19:38;32.00;1.00
26053;DHT22;13826;51.186;4.450;2022-07-29T13:22:06;32.10;1.00
26053;DHT22;13826;51.186;4.450;2022-07-29T13:24:33;31.40;1.00
26053;DHT22;13826;51.186;4.450;2022-07-29T13:26:59;30.80;1.00
26053;DHT22;13826;51.186;4.450;2022-07-29T13:29:24;30.80;1.00
26053;DHT22;13826;51.186;4.450;2022-07-29T13:31:52;30.70;1.00
26053;DHT22;13826;51.186;4.450;2022-07-29T13:34:17;30.40;1.00
26053;DHT22;13826;51.186;4.450;2022-07-29T13:36:45;30.70;1.00
26053;DHT22;13826;51.186;4.450;2022-07-29T13:39:10;30.60;1.00
26053;DHT22;13826;51.186;4.450;2022-07-29T13:41:36;30.70;1.00
26053;DHT22;13826;51.186;4.450;2022-07-29T13:44:02;30.70;1.00
26053;DHT22;13826;51.186;4.450;2022-07-29T13:46:28;31.00;1.00
26053;DHT22;13826;51.186;4.450;2022-07-29T13:48:53;31.20;1.00
26053;DHT22;13826;51.186;4.450;2022-07-29T13:51:19;30.90;1.00
26053;DHT22;13826;51.186;4.450;2022-07-29T13:53:45;30.80;1.00
26053;DHT22;13826;51.186;4.450;2022-07-29T13:56:10;30.70;1.00
26053;DHT22;13826;51.186;4.450;2022-07-29T13:58:36;30.60;1.00
26053;DHT22;13826;51.186;4.450;2022-07-29T14:01:02;30.60;1.00
26053;DHT22;13826;51.186;4.450;2022-07-29T14:03:28;30.80;1.00
26053;DHT22;13826;51.186;4.450;2022-07-29T14:05:54;30.70;1.00
26053;DHT22;13826;51.186;4.450;2022-07-29T14:08:19;30.60;1.00
26053;DHT22;13826;51.186;4.450;2022-07-29T14:10:45;30.50;1.00
26053;DHT22;13826;51.186;4.450;2022-07-29T14:13:11;30.50;1.00
26053;DHT22;13826;51.186;4.450;2022-07-29T14:15:36;30.10;1.00
26053;DHT22;13826;51.186;4.450;2022-07-29T14:18:02;30.10;1.00
26053;DHT22;13826;51.186;4.450;2022-07-29T14:20:33;29.50;1.00
26053;DHT22;13826;51.186;4.450;2022-07-29T14:23:02;29.30;1.00
26053;DHT22;13826;51.186;4.450;2022-07-29T14:25:27;29.30;1.00
26053;DHT22;13826;51.186;4.450;2022-07-29T14:27:53;29.50;1.00
26053;DHT22;13826;51.186;4.450;2022-07-29T14:30:19;29.70;1.00
26053;DHT22;13826;51.186;4.450;2022-07-29T14:32:45;29.70;1.00
26053;DHT22;13826;51.186;4.450;2022-07-29T14:35:11;29.10;1.00
26053;DHT22;13826;51.186;4.450;2022-07-29T14:37:37;29.30;1.00
26053;DHT22;13826;51.186;4.450;2022-07-29T14:40:04;29.30;1.00
26053;DHT22;13826;51.186;4.450;2022-07-29T14:42:30;29.30;1.00
26053;DHT22;13826;51.186;4.450;2022-07-29T14:44:58;29.50;1.00
26053;DHT22;13826;51.186;4.450;2022-07-29T14:47:24;29.40;1.00
26053;DHT22;13826;51.186;4.450;2022-07-29T14:49:50;29.40;1.00
26053;DHT22;13826;51.186;4.450;2022-07-29T14:52:15;28.90;1.00
26053;DHT22;13826;51.186;4.450;2022-07-29T14:54:41;28.90;1.00
26053;DHT22;13826;51.186;4.450;2022-07-29T14:57:08;29.10;1.00
26053;DHT22;13826;51.186;4.450;2022-07-29T14:59:34;29.20;1.00
26053;DHT22;13826;51.186;4.450;2022-07-29T15:02:00;28.70;1.00
26053;DHT22;13826;51.186;4.450;2022-07-29T15:04:25;28.60;1.00
26053;DHT22;13826;51.186;4.450;2022-07-29T15:06:51;28.60;1.00
26053;DHT22;13826;51.186;4.450;2022-07-29T15:09:17;28.70;1.00
26053;DHT22;13826;51.186;4.450;2022-07-29T15:11:43;28.70;1.00
26053;DHT22;13826;51.186;4.450;2022-07-29T15:14:09;28.60;1.00
26053;DHT22;13826;51.186;4.450;2022-07-29T15:16:36;28.50;1.00
26053;DHT22;13826;51.186;4.450;2022-07-29T15:19:03;28.40;1.00
26053;DHT22;13826;51.186;4.450;2022-07-29T15:21:29;28.20;1.00
26053;DHT22;13826;51.186;4.450;2022-07-29T15:23:54;28.20;1.00
26053;DHT22;13826;51.186;4.450;2022-07-29T15:26:20;28.00;1.00
26053;DHT22;13826;51.186;4.450;2022-07-29T15:28:46;28.00;1.00
26053;DHT22;13826;51.186;4.450;2022-07-29T15:31:12;28.00;1.00
26053;DHT22;13826;51.186;4.450;2022-07-29T15:33:37;28.30;1.00
26053;DHT22;13826;51.186;4.450;2022-07-29T15:36:03;28.40;1.00
26053;DHT22;13826;51.186;4.450;2022-07-29T15:38:30;28.50;1.00
26053;DHT22;13826;51.186;4.450;2022-07-29T15:40:56;28.50;1.00
26053;DHT22;13826;51.186;4.450;2022-07-29T15:43:22;28.30;1.00
26053;DHT22;13826;51.186;4.450;2022-07-29T15:45:48;28.50;1.00
26053;DHT22;13826;51.186;4.450;2022-07-29T15:48:32;28.50;1.00
26053;DHT22;13826;51.186;4.450;2022-07-29T15:51:01;28.50;1.00
26053;DHT22;13826;51.186;4.450;2022-07-29T15:53:26;28.30;1.00
26053;DHT22;13826;51.186;4.450;2022-07-29T15:55:52;28.00;1.00
26053;DHT22;13826;51.186;4.450;2022-07-29T15:58:18;28.20;1.00
26053;DHT22;13826;51.186;4.450;2022-07-29T16:00:43;28.30;1.00
26053;DHT22;13826;51.186;4.450;2022-07-29T16:03:09;28.20;1.00
26053;DHT22;13826;51.186;4.450;2022-07-29T16:05:35;28.10;1.00
26053;DHT22;13826;51.186;4.450;2022-07-29T16:08:00;28.10;1.00
26053;DHT22;13826;51.186;4.450;2022-07-29T16:10:26;27.90;1.00
26053;DHT22;13826;51.186;4.450;2022-07-29T16:12:52;27.90;1.00
26053;DHT22;13826;51.186;4.450;2022-07-29T16:15:17;27.90;1.00
26053;DHT22;13826;51.186;4.450;2022-07-29T16:17:43;27.90;1.00
26053;DHT22;13826;51.186;4.450;2022-07-29T16:20:09;27.80;1.00
26053;DHT22;13826;51.186;4.450;2022-07-29T16:22:35;27.50;1.00
26053;DHT22;13826;51.186;4.450;2022-07-29T16:25:01;27.50;1.00
26053;DHT22;13826;51.186;4.450;2022-07-29T16:27:26;27.60;1.00
26053;DHT22;13826;51.186;4.450;2022-07-29T16:29:55;27.60;1.00
26053;DHT22;13826;51.186;4.450;2022-07-29T16:32:21;27.50;1.00
26053;DHT22;13826;51.186;4.450;2022-07-29T16:34:47;27.30;1.00